createdAt,value
2022-11-20T00:00:23.167Z,36.92
2022-11-20T00:02:50.531Z,38.72
2022-11-20T00:05:17.935Z,35.95
2022-11-20T00:07:45.423Z,39.33
2022-11-20T00:10:12.859Z,35.47
2022-11-20T00:12:40.242Z,43.42
2022-11-20T00:15:09.939Z,39.58
2022-11-20T00:17:37.347Z,40.80
2022-11-20T00:20:05.898Z,33.85
2022-11-20T00:22:33.274Z,39.63
2022-11-20T00:25:00.621Z,40.38
2022-11-20T00:27:27.967Z,38.30
2022-11-20T00:29:55.472Z,37.05
2022-11-20T00:32:24.185Z,36.08
2022-11-20T00:34:51.562Z,38.88
2022-11-20T00:37:18.926Z,37.75
2022-11-20T00:39:46.297Z,39.50
2022-11-20T00:42:13.704Z,38.47
2022-11-20T00:44:41.087Z,37.10
2022-11-20T00:47:08.448Z,40.20
2022-11-20T00:49:37.186Z,36.55
2022-11-20T00:52:04.551Z,36.55
2022-11-20T00:54:31.907Z,40.05
2022-11-20T00:56:59.263Z,39.67
2022-11-20T00:59:26.655Z,42.33
2022-11-20T01:01:54.011Z,42.85
2022-11-20T01:04:21.443Z,42.60
2022-11-20T01:06:50.142Z,55.22
2022-11-20T01:09:17.512Z,45.60
2022-11-20T01:11:45.468Z,46.63
2022-11-20T01:14:15.460Z,44.17
2022-11-20T01:16:43.941Z,45.97
2022-11-20T01:19:17.360Z,50.63
2022-11-20T01:21:46.038Z,45.47
2022-11-20T01:24:16.247Z,47.10
2022-11-20T01:26:44.411Z,43.22
2022-11-20T01:29:14.438Z,45.28
2022-11-20T01:31:41.844Z,40.78
2022-11-20T01:34:10.961Z,41.80
2022-11-20T01:36:39.007Z,43.13
2022-11-20T01:39:07.427Z,37.63
2022-11-20T01:41:53.754Z,41.80
2022-11-20T01:44:23.573Z,38.88
2022-11-20T01:46:54.763Z,40.25
2022-11-20T01:49:23.825Z,44.92
2022-11-20T01:51:52.611Z,45.13
2022-11-20T01:54:21.841Z,41.85
2022-11-20T01:56:52.626Z,42.88
2022-11-20T01:59:20.819Z,40.83
2022-11-20T02:01:48.695Z,38.35
2022-11-20T02:06:45.667Z,39.28
2022-11-20T02:09:13.253Z,39.28
2022-11-20T02:11:40.652Z,45.35
2022-11-20T02:14:08.772Z,41.83
2022-11-20T02:16:37.553Z,47.65
2022-11-20T02:19:06.435Z,39.88
2022-11-20T02:21:36.906Z,38.83
2022-11-20T02:24:10.104Z,42.08
2022-11-20T02:26:41.222Z,40.53
2022-11-20T02:29:08.584Z,40.45
2022-11-20T02:31:37.481Z,39.83
2022-11-20T02:34:04.867Z,40.00
2022-11-20T02:36:33.743Z,38.28
2022-11-20T02:39:01.134Z,44.30
2022-11-20T02:41:33.934Z,38.75
2022-11-20T02:44:01.337Z,47.00
2022-11-20T02:46:28.730Z,39.90
2022-11-20T02:48:56.166Z,39.90
2022-11-20T02:51:24.101Z,41.78
2022-11-20T02:53:51.752Z,37.83
2022-11-20T02:56:19.118Z,42.55
2022-11-20T02:58:47.802Z,34.78
2022-11-20T03:01:15.259Z,37.38
2022-11-20T03:03:42.695Z,39.20
2022-11-20T03:06:10.230Z,36.17
2022-11-20T03:08:37.698Z,38.17
2022-11-20T03:11:06.187Z,40.60
2022-11-20T03:13:33.613Z,35.47
2022-11-20T03:16:07.450Z,43.22
2022-11-20T03:18:34.900Z,38.05
2022-11-20T03:21:02.350Z,37.92
2022-11-20T03:23:30.772Z,41.78
2022-11-20T03:25:58.171Z,36.05
2022-11-20T03:28:25.513Z,36.72
2022-11-20T03:30:52.874Z,39.20
2022-11-20T03:33:21.586Z,38.63
2022-11-20T03:35:48.950Z,40.53
2022-11-20T03:38:16.309Z,45.30
2022-11-20T03:40:43.677Z,42.55
2022-11-20T03:43:11.474Z,35.97
2022-11-20T03:48:06.552Z,36.45
2022-11-20T03:50:35.287Z,35.88
2022-11-20T03:53:02.659Z,35.75
2022-11-20T03:55:30.025Z,42.70
2022-11-20T03:57:57.463Z,42.85
2022-11-20T04:00:29.736Z,42.05
2022-11-20T04:02:59.459Z,39.28
2022-11-20T04:05:27.102Z,40.33
2022-11-20T04:07:55.890Z,41.83
2022-11-20T04:10:23.252Z,41.47
2022-11-20T04:12:50.610Z,41.05
2022-11-20T04:15:18.953Z,40.80
2022-11-20T04:17:46.360Z,37.33
2022-11-20T04:20:13.756Z,38.15
2022-11-20T04:22:41.128Z,43.28
2022-11-20T04:25:10.448Z,38.40
2022-11-20T04:27:37.842Z,38.78
2022-11-20T04:30:05.554Z,42.22
2022-11-20T04:35:00.222Z,40.72
2022-11-20T04:37:27.644Z,36.20
2022-11-20T04:39:55.122Z,45.65
2022-11-20T04:42:30.132Z,41.30
2022-11-20T04:44:57.814Z,46.35
2022-11-20T04:49:52.506Z,37.88
2022-11-20T04:52:20.019Z,43.40
2022-11-20T04:54:47.393Z,38.90
2022-11-20T04:57:15.451Z,44.58
2022-11-20T04:59:44.392Z,43.92
2022-11-20T05:02:12.189Z,44.15
2022-11-20T05:07:06.865Z,40.72
2022-11-20T05:09:34.384Z,36.22
2022-11-20T05:12:01.793Z,41.75
2022-11-20T05:14:29.169Z,43.92
2022-11-20T05:16:57.930Z,40.28
2022-11-20T05:19:25.297Z,43.95
2022-11-20T05:21:52.669Z,42.42
2022-11-20T05:24:20.139Z,39.20
2022-11-20T05:26:47.549Z,43.03
2022-11-20T05:29:15.036Z,41.42
2022-11-20T05:31:42.647Z,42.30
2022-11-20T05:39:06.116Z,40.72
2022-11-20T05:41:34.781Z,39.65
2022-11-20T05:44:02.202Z,39.53
2022-11-20T05:46:29.892Z,45.30
2022-11-20T05:48:58.145Z,39.65
2022-11-20T05:51:25.958Z,45.25
2022-11-20T05:56:22.649Z,40.55
2022-11-20T05:58:50.278Z,36.92
2022-11-20T06:01:18.555Z,38.20
2022-11-20T06:03:48.301Z,43.80
2022-11-20T06:06:15.903Z,39.50
2022-11-20T06:08:43.243Z,39.85
2022-11-20T06:11:12.718Z,45.10
2022-11-20T06:13:42.698Z,39.60
2022-11-20T06:16:10.478Z,40.70
2022-11-20T06:18:37.993Z,45.25
2022-11-20T06:21:06.626Z,40.58
2022-11-20T06:23:34.738Z,49.83
2022-11-20T06:26:03.566Z,46.10
2022-11-20T06:28:31.104Z,41.47
2022-11-20T06:30:59.971Z,37.45
2022-11-20T06:33:27.550Z,38.10
2022-11-20T06:36:00.430Z,42.55
2022-11-20T06:38:30.396Z,42.28
2022-11-20T06:40:57.968Z,44.20
2022-11-20T06:43:25.613Z,46.88
2022-11-20T06:48:21.715Z,45.25
2022-11-20T06:50:49.053Z,38.22
2022-11-20T06:53:16.449Z,40.05
2022-11-20T06:55:44.534Z,37.75
2022-11-20T06:58:11.960Z,39.38
2022-11-20T07:00:39.422Z,38.72
2022-11-20T07:03:07.223Z,38.83
2022-11-20T07:08:03.582Z,40.90
2022-11-20T07:10:30.948Z,39.38
2022-11-20T07:12:58.397Z,42.90
2022-11-20T07:15:26.791Z,39.25
2022-11-20T07:17:54.195Z,37.55
2022-11-20T07:20:21.741Z,44.80
2022-11-20T07:22:54.723Z,38.42
2022-11-20T07:25:23.483Z,43.83
2022-11-20T07:27:50.873Z,39.05
2022-11-20T07:30:18.562Z,39.83
2022-11-20T07:35:13.287Z,36.17
2022-11-20T07:37:40.723Z,43.47
2022-11-20T07:40:08.494Z,35.67
2022-11-20T07:42:37.181Z,40.63
2022-11-20T07:45:04.955Z,43.60
2022-11-20T07:49:59.547Z,42.70
2022-11-20T07:52:26.924Z,39.90
2022-11-20T07:54:54.269Z,41.70
2022-11-20T07:57:27.091Z,40.55
2022-11-20T07:59:57.199Z,41.85
2022-11-20T08:02:24.658Z,41.88
2022-11-20T08:04:52.066Z,39.38
2022-11-20T08:07:19.484Z,42.80
2022-11-20T08:09:46.951Z,44.03
2022-11-20T08:12:36.320Z,38.00
2022-11-20T08:15:11.314Z,49.75
2022-11-20T08:17:40.362Z,32.10
2022-11-20T08:20:08.160Z,46.75
2022-11-20T08:25:02.900Z,46.45
2022-11-20T08:27:30.414Z,46.33
2022-11-20T08:29:57.814Z,41.17
2022-11-20T08:32:26.597Z,39.58
2022-11-20T08:34:53.982Z,42.42
2022-11-20T08:37:21.378Z,39.95
2022-11-20T08:39:48.766Z,40.22
2022-11-20T08:42:16.157Z,39.35
2022-11-20T08:44:44.011Z,41.50
2022-11-20T08:47:11.435Z,44.00
2022-11-20T08:49:40.163Z,44.17
2022-11-20T08:52:07.546Z,47.35
2022-11-20T08:54:34.918Z,51.88
2022-11-20T08:57:02.273Z,50.47
2022-11-20T09:00:03.884Z,54.90
2022-11-20T09:02:17.264Z,53.03
2022-11-20T09:04:46.004Z,50.08
2022-11-20T09:07:13.425Z,54.45
2022-11-20T09:09:40.886Z,57.35
2022-11-20T09:12:08.282Z,48.70
2022-11-20T09:14:35.669Z,49.10
2022-11-20T09:17:03.035Z,52.28
2022-11-20T09:19:37.486Z,50.85
2022-11-20T09:22:06.291Z,53.85
2022-11-20T09:24:33.774Z,50.28
2022-11-20T09:27:03.159Z,45.60
2022-11-20T09:29:30.602Z,57.03
2022-11-20T09:31:58.021Z,52.47
2022-11-20T09:34:25.549Z,54.38
2022-11-20T09:36:52.902Z,53.00
2022-11-20T09:39:21.793Z,55.17
2022-11-20T09:42:04.562Z,57.42
2022-11-20T09:44:51.092Z,53.42
2022-11-20T09:47:23.914Z,54.55
2022-11-20T09:50:00.090Z,58.40
2022-11-20T09:52:34.284Z,52.25
2022-11-20T09:55:04.466Z,58.42
2022-11-20T09:57:35.594Z,52.00
2022-11-20T10:00:05.553Z,50.63
2022-11-20T10:02:42.897Z,54.03
2022-11-20T10:05:13.318Z,50.30
2022-11-20T10:07:43.465Z,55.05
2022-11-20T10:10:17.010Z,51.05
2022-11-20T10:12:51.916Z,55.47
2022-11-20T10:15:29.748Z,51.83
2022-11-20T10:18:03.604Z,54.88
2022-11-20T10:20:35.106Z,54.45
2022-11-20T10:23:08.116Z,59.00
2022-11-20T10:25:39.826Z,53.08
2022-11-20T10:28:25.689Z,59.88
2022-11-20T10:30:57.187Z,52.03
2022-11-20T10:33:27.118Z,55.97
2022-11-20T10:35:57.430Z,49.67
2022-11-20T10:38:27.948Z,54.45
2022-11-20T10:41:19.481Z,52.78
2022-11-20T10:43:48.107Z,34.95
2022-11-20T10:46:17.620Z,41.95
2022-11-20T10:48:45.845Z,40.20
2022-11-20T10:51:17.812Z,41.65
2022-11-20T10:54:00.527Z,44.42
2022-11-20T10:56:33.286Z,43.13
2022-11-20T10:59:18.576Z,37.90
2022-11-20T11:01:46.088Z,37.75
2022-11-20T11:04:20.851Z,32.38
2022-11-20T11:06:49.923Z,36.08
2022-11-20T11:09:18.886Z,41.50
2022-11-20T11:11:47.679Z,46.55
2022-11-20T11:14:15.777Z,46.08
2022-11-20T11:16:50.947Z,39.35
2022-11-20T11:19:18.376Z,36.03
2022-11-20T11:21:52.348Z,40.20
2022-11-20T11:24:41.605Z,35.83
2022-11-20T11:27:17.174Z,35.08
2022-11-20T11:29:45.440Z,32.63
2022-11-20T11:32:14.216Z,32.83
2022-11-20T11:34:41.585Z,31.63
2022-11-20T11:37:15.018Z,32.00
2022-11-20T11:39:44.000Z,29.38
2022-11-20T11:42:15.063Z,22.70
2022-11-20T11:45:03.302Z,24.50
2022-11-20T11:47:32.800Z,23.58
2022-11-20T11:50:04.840Z,36.10
2022-11-20T11:52:33.137Z,28.65
2022-11-20T11:55:04.877Z,25.83
2022-11-20T11:57:43.360Z,21.53
2022-11-20T12:00:11.671Z,20.00
2022-11-20T12:02:40.999Z,22.77
2022-11-20T12:05:12.659Z,20.45
2022-11-20T12:07:47.059Z,21.25
2022-11-20T12:10:17.699Z,25.00
2022-11-20T12:12:47.687Z,26.90
2022-11-20T12:15:17.933Z,24.13
2022-11-20T12:17:45.318Z,23.70
2022-11-20T12:20:14.924Z,23.50
2022-11-20T12:22:46.750Z,26.90
2022-11-20T12:25:16.127Z,25.23
2022-11-20T12:27:53.319Z,23.65
2022-11-20T12:30:21.476Z,23.40
2022-11-20T12:33:01.498Z,21.55
2022-11-20T12:35:34.212Z,22.02
2022-11-20T12:38:10.535Z,25.60
2022-11-20T12:40:41.923Z,22.70
2022-11-20T12:43:32.149Z,23.88
2022-11-20T12:46:14.879Z,20.95
2022-11-20T12:48:57.366Z,23.42
2022-11-20T12:51:42.448Z,21.17
2022-11-20T12:54:21.771Z,20.20
2022-11-20T12:56:52.017Z,23.20
2022-11-20T12:59:28.782Z,23.92
2022-11-20T13:01:58.055Z,28.70
2022-11-20T13:04:33.208Z,22.20
2022-11-20T13:07:01.184Z,20.92
2022-11-20T13:09:29.446Z,27.15
2022-11-20T13:12:04.776Z,23.88
2022-11-20T13:14:36.611Z,23.35
2022-11-20T13:17:09.908Z,24.05
2022-11-20T13:19:37.543Z,25.15
2022-11-20T13:22:04.973Z,26.40
2022-11-20T13:24:32.793Z,28.63
2022-11-20T13:27:21.822Z,24.95
2022-11-20T13:30:01.413Z,28.25
2022-11-20T13:32:32.852Z,26.50
2022-11-20T13:35:01.186Z,30.50
2022-11-20T13:37:30.052Z,28.17
2022-11-20T13:40:14.496Z,26.63
2022-11-20T13:42:45.532Z,26.48
2022-11-20T13:45:24.318Z,30.33
2022-11-20T13:47:52.423Z,31.67
2022-11-20T13:50:20.091Z,28.30
2022-11-20T13:52:53.429Z,32.03
2022-11-20T13:55:24.781Z,31.63
2022-11-20T13:58:14.962Z,30.08
2022-11-20T14:00:47.258Z,27.83
2022-11-20T14:03:19.118Z,26.85
2022-11-20T14:05:52.049Z,30.25
2022-11-20T14:08:25.200Z,28.02
2022-11-20T14:10:52.618Z,28.48
2022-11-20T14:13:20.852Z,33.17
2022-11-20T14:15:49.591Z,26.00
2022-11-20T14:18:20.871Z,28.13
2022-11-20T14:20:48.604Z,29.00
2022-11-20T14:23:29.481Z,27.55
2022-11-20T14:25:57.557Z,28.10
2022-11-20T14:28:27.058Z,31.60
2022-11-20T14:30:56.100Z,29.92
2022-11-20T14:33:25.806Z,31.60
2022-11-20T14:35:54.141Z,33.30
2022-11-20T14:38:23.514Z,29.63
2022-11-20T14:40:50.976Z,30.15
2022-11-20T14:43:20.033Z,31.73
2022-11-20T14:45:57.385Z,33.13
2022-11-20T14:48:30.474Z,32.22
2022-11-20T14:50:57.914Z,34.15
2022-11-20T14:53:25.921Z,34.88
2022-11-20T14:55:59.030Z,35.40
2022-11-20T14:58:27.762Z,34.42
2022-11-20T15:00:56.165Z,34.97
2022-11-20T15:03:29.192Z,29.73
2022-11-20T15:06:00.545Z,33.75
2022-11-20T15:08:27.934Z,34.53
2022-11-20T15:10:55.792Z,31.42
2022-11-20T15:15:51.193Z,32.50
2022-11-20T15:20:45.980Z,37.40
2022-11-20T15:23:16.768Z,32.17
2022-11-20T15:25:44.535Z,32.80
2022-11-20T15:28:15.832Z,34.92
2022-11-20T15:30:43.225Z,37.08
2022-11-20T15:33:11.510Z,35.72
2022-11-20T15:35:38.937Z,35.85
2022-11-20T15:38:06.511Z,34.15
2022-11-20T15:40:35.468Z,33.97
2022-11-20T15:43:11.597Z,37.33
2022-11-20T15:48:11.189Z,36.85
2022-11-20T15:50:39.636Z,41.22
2022-11-20T15:53:07.033Z,39.95
2022-11-20T15:55:35.777Z,41.70
2022-11-20T15:58:03.237Z,39.25
2022-11-20T16:00:30.663Z,45.00
2022-11-20T16:02:58.235Z,41.15
2022-11-20T16:05:25.795Z,38.38
2022-11-20T16:07:53.459Z,42.33
2022-11-20T16:10:20.815Z,60.85
2022-11-20T16:13:07.287Z,44.45
2022-11-20T16:15:46.808Z,45.00
2022-11-20T16:18:14.933Z,45.83
2022-11-20T16:20:42.415Z,48.65
2022-11-20T16:23:10.033Z,47.05
2022-11-20T16:25:37.775Z,42.42
2022-11-20T16:28:06.965Z,46.85
2022-11-20T16:30:34.745Z,46.90
2022-11-20T16:33:02.278Z,53.25
2022-11-20T16:35:30.065Z,50.90
2022-11-20T16:37:57.728Z,45.85
2022-11-20T16:40:25.647Z,46.50
2022-11-20T16:45:26.964Z,51.67
2022-11-20T16:47:56.293Z,59.63
2022-11-20T16:50:23.658Z,48.25
2022-11-20T16:52:51.061Z,59.75
2022-11-20T16:55:18.401Z,51.35
2022-11-20T16:57:45.845Z,51.88
2022-11-20T17:00:13.743Z,54.00
2022-11-20T17:05:10.215Z,54.15
2022-11-20T17:07:39.117Z,59.17
2022-11-20T17:10:06.967Z,55.45
2022-11-20T17:12:34.295Z,57.15
2022-11-20T17:15:01.686Z,62.03
2022-11-20T17:17:29.410Z,59.92
2022-11-20T17:19:56.828Z,64.22
2022-11-20T17:22:25.563Z,64.50
2022-11-20T17:24:52.962Z,75.60
2022-11-20T17:27:20.348Z,63.58
2022-11-20T17:29:47.752Z,64.03
2022-11-20T17:32:15.346Z,68.20
2022-11-20T17:34:42.759Z,59.08
2022-11-20T17:37:10.117Z,64.43
2022-11-20T17:39:39.770Z,71.03
2022-11-20T17:42:24.702Z,67.45
2022-11-20T17:44:52.077Z,64.30
2022-11-20T17:47:19.472Z,61.45
2022-11-20T17:49:46.985Z,70.03
2022-11-20T17:52:14.391Z,70.90
2022-11-20T17:54:43.150Z,67.75
2022-11-20T17:57:28.372Z,70.93
2022-11-20T17:59:55.734Z,65.97
2022-11-20T18:02:23.090Z,68.95
2022-11-20T18:04:50.976Z,73.82
2022-11-20T18:09:46.976Z,73.28
2022-11-20T18:12:14.374Z,75.40
2022-11-20T18:14:43.469Z,71.15
2022-11-20T18:17:11.783Z,71.10
2022-11-20T18:19:44.829Z,78.97
2022-11-20T18:22:15.746Z,84.10
2022-11-20T18:24:43.203Z,95.22
2022-11-20T18:27:16.155Z,77.95
2022-11-20T18:29:43.944Z,82.30
2022-11-20T18:32:11.327Z,84.15
2022-11-20T18:34:38.722Z,75.85
2022-11-20T18:37:06.116Z,78.10
2022-11-20T18:39:33.653Z,79.07
2022-11-20T18:42:18.609Z,77.97
2022-11-20T18:44:53.787Z,72.35
2022-11-20T18:47:22.979Z,81.05
2022-11-20T18:49:52.451Z,91.10
2022-11-20T18:52:21.086Z,90.80
2022-11-20T18:54:48.581Z,82.80
2022-11-20T18:57:17.671Z,82.72
2022-11-20T18:59:45.595Z,80.07
2022-11-20T19:04:41.998Z,76.38
2022-11-20T19:07:12.125Z,79.10
2022-11-20T19:09:39.803Z,90.38
2022-11-20T19:12:07.695Z,85.10
2022-11-20T19:17:02.692Z,85.70
2022-11-20T19:21:58.798Z,76.70
2022-11-20T19:24:27.434Z,90.35
2022-11-20T19:26:55.975Z,102.80
2022-11-20T19:29:24.505Z,87.25
2022-11-20T19:31:52.277Z,87.13
2022-11-20T19:34:19.663Z,76.97
2022-11-20T19:36:47.099Z,84.45
2022-11-20T19:39:15.960Z,78.22
2022-11-20T19:41:43.431Z,102.22
2022-11-20T19:44:11.634Z,89.70
2022-11-20T19:46:39.373Z,88.53
2022-11-20T19:49:09.262Z,99.63
2022-11-20T19:51:37.053Z,98.60
2022-11-20T19:54:04.642Z,100.03
2022-11-20T19:56:33.940Z,104.57
2022-11-20T19:59:01.597Z,125.65
2022-11-20T20:01:29.835Z,87.85
2022-11-20T20:04:01.257Z,108.03
2022-11-20T20:06:29.231Z,79.25
2022-11-20T20:11:24.887Z,93.38
2022-11-20T20:13:54.665Z,78.45
2022-11-20T20:16:22.897Z,84.80
2022-11-20T20:18:50.330Z,89.10
2022-11-20T20:21:18.592Z,79.65
2022-11-20T20:23:47.579Z,100.90
2022-11-20T20:26:14.990Z,75.18
2022-11-20T20:28:42.356Z,91.85
2022-11-20T20:31:12.159Z,81.28
2022-11-20T20:33:39.902Z,124.15
2022-11-20T20:36:08.013Z,95.28
2022-11-20T20:38:35.361Z,216.05
2022-11-20T20:41:03.117Z,81.88
2022-11-20T20:43:31.421Z,89.82
2022-11-20T20:45:58.760Z,84.53
2022-11-20T20:48:27.574Z,90.18
2022-11-20T20:50:55.457Z,80.65
2022-11-20T20:55:56.846Z,76.40
2022-11-20T20:58:24.279Z,116.68
2022-11-20T21:00:51.691Z,73.57
2022-11-20T21:03:19.322Z,70.97
2022-11-20T21:05:48.347Z,76.72
2022-11-20T21:08:25.355Z,76.05
2022-11-20T21:10:53.479Z,72.50
2022-11-20T21:13:21.333Z,78.82
2022-11-20T21:18:17.101Z,71.03
2022-11-20T21:21:02.106Z,76.45
2022-11-20T21:23:31.043Z,113.30
2022-11-20T21:26:01.283Z,136.38
2022-11-20T21:28:28.660Z,142.00
2022-11-20T21:31:03.381Z,126.68
2022-11-20T21:33:36.021Z,122.60
2022-11-20T21:36:03.504Z,120.72
2022-11-20T21:38:32.301Z,100.25
2022-11-20T21:40:59.927Z,107.05
2022-11-20T21:43:27.335Z,88.75
2022-11-20T21:45:56.555Z,112.95
2022-11-20T21:48:23.993Z,77.50
2022-11-20T21:50:51.443Z,96.63
2022-11-20T21:53:18.885Z,93.35
2022-11-20T21:55:55.349Z,88.60
2022-11-20T21:58:22.770Z,81.20
2022-11-20T22:00:50.180Z,91.07
2022-11-20T22:03:17.621Z,94.60
2022-11-20T22:05:45.156Z,74.53
2022-11-20T22:08:12.576Z,70.75
2022-11-20T22:10:39.902Z,108.32
2022-11-20T22:13:28.485Z,81.07
2022-11-20T22:16:01.761Z,69.30
2022-11-20T22:18:29.206Z,70.85
2022-11-20T22:20:56.624Z,64.25
2022-11-20T22:23:23.996Z,58.45
2022-11-20T22:25:51.381Z,51.38
2022-11-20T22:28:20.150Z,61.50
2022-11-20T22:30:47.585Z,76.28
2022-11-20T22:33:14.957Z,85.38
2022-11-20T22:35:42.318Z,70.80
2022-11-20T22:38:09.667Z,91.80
2022-11-20T22:40:37.030Z,58.15
2022-11-20T22:43:04.413Z,66.15
2022-11-20T22:45:33.205Z,65.22
2022-11-20T22:48:00.589Z,54.97
2022-11-20T22:50:27.961Z,80.53
2022-11-20T22:52:55.313Z,65.47
2022-11-20T22:55:22.759Z,58.83
2022-11-20T22:57:50.186Z,75.25
2022-11-20T23:00:18.175Z,55.75
2022-11-20T23:02:47.457Z,75.45
2022-11-20T23:05:14.945Z,43.30
2022-11-20T23:07:43.812Z,48.78
2022-11-20T23:10:11.307Z,41.42
2022-11-20T23:12:38.730Z,52.13
2022-11-20T23:15:06.666Z,53.17
2022-11-20T23:22:32.227Z,44.83
2022-11-20T23:24:59.615Z,48.08
2022-11-20T23:27:28.397Z,48.78
2022-11-20T23:29:56.471Z,57.88
2022-11-20T23:34:51.295Z,52.67
2022-11-20T23:37:18.696Z,52.85
2022-11-20T23:39:47.438Z,51.45
2022-11-20T23:42:14.804Z,44.97
2022-11-20T23:44:42.155Z,49.92
2022-11-20T23:47:09.514Z,50.55
2022-11-20T23:49:36.877Z,56.22
2022-11-20T23:52:04.369Z,48.10
2022-11-20T23:54:31.760Z,49.33
2022-11-20T23:57:00.439Z,50.60
2022-11-20T23:59:27.823Z,49.65
